sensor_id;sensor_type;location;lat;lon;timestamp;pressure;altitude;pressure_sealevel;temperature;humidity
35489;BME280;21602;55.670;37.578;2023-07-22T00:01:38;98540.41;;;15.68;73.87
35489;BME280;21602;55.670;37.578;2023-07-22T00:04:04;98536.94;;;15.62;73.84
35489;BME280;21602;55.670;37.578;2023-07-22T00:06:30;98530.75;;;15.61;73.83
35489;BME280;21602;55.670;37.578;2023-07-22T00:08:55;98534.00;;;15.64;73.88
35489;BME280;21602;55.670;37.578;2023-07-22T00:11:21;98529.94;;;15.61;73.88
35489;BME280;21602;55.670;37.578;2023-07-22T00:13:46;98532.13;;;15.59;73.84
35489;BME280;21602;55.670;37.578;2023-07-22T00:16:12;98539.13;;;15.60;73.78
35489;BME280;21602;55.670;37.578;2023-07-22T00:18:38;98545.59;;;15.59;73.88
35489;BME280;21602;55.670;37.578;2023-07-22T00:21:03;98542.09;;;15.58;73.97
35489;BME280;21602;55.670;37.578;2023-07-22T00:23:29;98540.72;;;15.61;73.93
35489;BME280;21602;55.670;37.578;2023-07-22T00:25:55;98538.56;;;15.63;73.79
35489;BME280;21602;55.670;37.578;2023-07-22T00:28:20;98540.19;;;15.64;73.80
35489;BME280;21602;55.670;37.578;2023-07-22T00:30:46;98534.78;;;15.64;73.82
35489;BME280;21602;55.670;37.578;2023-07-22T00:33:14;98541.25;;;15.63;73.95
35489;BME280;21602;55.670;37.578;2023-07-22T00:35:40;98541.50;;;15.61;74.11
35489;BME280;21602;55.670;37.578;2023-07-22T00:38:05;98539.13;;;15.60;74.26
35489;BME280;21602;55.670;37.578;2023-07-22T00:40:31;98537.50;;;15.59;74.29
35489;BME280;21602;55.670;37.578;2023-07-22T00:42:59;98541.81;;;15.60;74.32
35489;BME280;21602;55.670;37.578;2023-07-22T00:45:25;98540.72;;;15.61;74.53
35489;BME280;21602;55.670;37.578;2023-07-22T00:47:50;98546.09;;;15.61;74.43
35489;BME280;21602;55.670;37.578;2023-07-22T00:50:16;98548.28;;;15.59;74.55
35489;BME280;21602;55.670;37.578;2023-07-22T00:52:42;98544.50;;;15.60;74.63
35489;BME280;21602;55.670;37.578;2023-07-22T00:55:08;98547.19;;;15.60;74.69
35489;BME280;21602;55.670;37.578;2023-07-22T00:57:33;98553.66;;;15.59;74.87
35489;BME280;21602;55.670;37.578;2023-07-22T00:59:59;98546.38;;;15.59;74.91
35489;BME280;21602;55.670;37.578;2023-07-22T01:02:24;98553.13;;;15.57;75.05
35489;BME280;21602;55.670;37.578;2023-07-22T01:04:50;98555.53;;;15.58;75.01
35489;BME280;21602;55.670;37.578;2023-07-22T01:07:17;98555.25;;;15.60;75.03
35489;BME280;21602;55.670;37.578;2023-07-22T01:09:43;98556.06;;;15.60;75.07
35489;BME280;21602;55.670;37.578;2023-07-22T01:12:10;98550.66;;;15.60;75.06
35489;BME280;21602;55.670;37.578;2023-07-22T01:14:37;98561.72;;;15.59;75.20
35489;BME280;21602;55.670;37.578;2023-07-22T01:17:03;98550.97;;;15.59;75.34
35489;BME280;21602;55.670;37.578;2023-07-22T01:19:30;98560.41;;;15.56;75.47
35489;BME280;21602;55.670;37.578;2023-07-22T01:22:03;98561.78;;;15.54;75.54
35489;BME280;21602;55.670;37.578;2023-07-22T01:24:29;98567.72;;;15.51;75.66
35489;BME280;21602;55.670;37.578;2023-07-22T01:26:55;98574.69;;;15.52;75.75
35489;BME280;21602;55.670;37.578;2023-07-22T01:29:23;98569.09;;;15.48;76.20
35489;BME280;21602;55.670;37.578;2023-07-22T01:31:53;98568.31;;;15.48;76.13
35489;BME280;21602;55.670;37.578;2023-07-22T01:34:19;98565.88;;;15.46;76.26
35489;BME280;21602;55.670;37.578;2023-07-22T01:36:45;98570.47;;;15.46;76.22
35489;BME280;21602;55.670;37.578;2023-07-22T01:39:11;98580.72;;;15.44;76.34
35489;BME280;21602;55.670;37.578;2023-07-22T01:41:37;98576.13;;;15.44;76.34
35489;BME280;21602;55.670;37.578;2023-07-22T01:44:02;98580.97;;;15.42;76.69
35489;BME280;21602;55.670;37.578;2023-07-22T01:46:28;98583.16;;;15.40;76.76
35489;BME280;21602;55.670;37.578;2023-07-22T01:48:55;98577.22;;;15.43;76.66
35489;BME280;21602;55.670;37.578;2023-07-22T01:51:20;98587.69;;;15.45;76.64
35489;BME280;21602;55.670;37.578;2023-07-22T01:53:46;98583.41;;;15.44;76.70
35489;BME280;21602;55.670;37.578;2023-07-22T01:56:15;98578.81;;;15.44;76.72
35489;BME280;21602;55.670;37.578;2023-07-22T01:58:41;98590.63;;;15.48;76.57
35489;BME280;21602;55.670;37.578;2023-07-22T02:01:08;98590.63;;;15.48;76.48
35489;BME280;21602;55.670;37.578;2023-07-22T02:03:34;98593.03;;;15.50;76.48
35489;BME280;21602;55.670;37.578;2023-07-22T02:06:03;98592.22;;;15.49;76.54
35489;BME280;21602;55.670;37.578;2023-07-22T02:08:29;98583.56;;;15.52;76.53
35489;BME280;21602;55.670;37.578;2023-07-22T02:10:55;98590.84;;;15.52;76.67
35489;BME280;21602;55.670;37.578;2023-07-22T02:13:20;98587.59;;;15.55;76.24
35489;BME280;21602;55.670;37.578;2023-07-22T02:15:46;98585.94;;;15.59;76.35
35489;BME280;21602;55.670;37.578;2023-07-22T02:18:13;98588.94;;;15.57;76.25
35489;BME280;21602;55.670;37.578;2023-07-22T02:20:38;98589.97;;;15.56;76.35
35489;BME280;21602;55.670;37.578;2023-07-22T02:23:07;98593.72;;;15.60;76.31
35489;BME280;21602;55.670;37.578;2023-07-22T02:25:33;98589.13;;;15.61;76.26
35489;BME280;21602;55.670;37.578;2023-07-22T02:27:58;98588.34;;;15.60;76.28
35489;BME280;21602;55.670;37.578;2023-07-22T02:30:24;98592.91;;;15.60;76.41
35489;BME280;21602;55.670;37.578;2023-07-22T02:32:49;98603.94;;;15.64;76.41
35489;BME280;21602;55.670;37.578;2023-07-22T02:35:15;98595.59;;;15.65;76.35
35489;BME280;21602;55.670;37.578;2023-07-22T02:37:40;98596.69;;;15.64;76.40
35489;BME280;21602;55.670;37.578;2023-07-22T02:40:06;98599.88;;;15.66;76.48
35489;BME280;21602;55.670;37.578;2023-07-22T02:42:38;98600.91;;;15.70;76.34
35489;BME280;21602;55.670;37.578;2023-07-22T02:45:04;98600.66;;;15.72;76.31
35489;BME280;21602;55.670;37.578;2023-07-22T02:47:32;98602.00;;;15.69;76.21
35489;BME280;21602;55.670;37.578;2023-07-22T02:49:57;98606.88;;;15.67;76.43
35489;BME280;21602;55.670;37.578;2023-07-22T02:52:23;98606.81;;;15.72;76.33
35489;BME280;21602;55.670;37.578;2023-07-22T02:57:30;98604.19;;;15.91;75.58
35489;BME280;21602;55.670;37.578;2023-07-22T02:59:56;98609.78;;;15.95;75.68
35489;BME280;21602;55.670;37.578;2023-07-22T03:02:21;98604.94;;;15.97;75.61
35489;BME280;21602;55.670;37.578;2023-07-22T03:04:47;98615.19;;;15.95;75.47
35489;BME280;21602;55.670;37.578;2023-07-22T03:07:12;98613.88;;;15.92;75.51
35489;BME280;21602;55.670;37.578;2023-07-22T03:09:38;98617.38;;;15.93;75.58
35489;BME280;21602;55.670;37.578;2023-07-22T03:12:06;98609.28;;;15.93;75.38
35489;BME280;21602;55.670;37.578;2023-07-22T03:14:31;98617.59;;;15.96;75.42
35489;BME280;21602;55.670;37.578;2023-07-22T03:17:02;98622.63;;;16.03;75.39
35489;BME280;21602;55.670;37.578;2023-07-22T03:19:27;98622.13;;;16.01;75.48
35489;BME280;21602;55.670;37.578;2023-07-22T03:21:53;98615.09;;;16.05;75.45
35489;BME280;21602;55.670;37.578;2023-07-22T03:24:18;98608.59;;;16.06;75.26
35489;BME280;21602;55.670;37.578;2023-07-22T03:26:44;98617.72;;;16.10;75.36
35489;BME280;21602;55.670;37.578;2023-07-22T03:29:10;98615.53;;;16.12;74.96
35489;BME280;21602;55.670;37.578;2023-07-22T03:31:35;98620.56;;;16.19;74.81
35489;BME280;21602;55.670;37.578;2023-07-22T03:34:01;98632.53;;;16.31;74.80
35489;BME280;21602;55.670;37.578;2023-07-22T03:36:27;98615.19;;;16.37;74.23
35489;BME280;21602;55.670;37.578;2023-07-22T03:38:52;98622.94;;;16.44;74.30
35489;BME280;21602;55.670;37.578;2023-07-22T03:41:18;98619.72;;;16.42;74.05
35489;BME280;21602;55.670;37.578;2023-07-22T03:43:43;98623.25;;;16.43;73.63
35489;BME280;21602;55.670;37.578;2023-07-22T03:46:09;98631.31;;;16.43;73.66
35489;BME280;21602;55.670;37.578;2023-07-22T03:48:34;98639.69;;;16.41;73.72
35489;BME280;21602;55.670;37.578;2023-07-22T03:51:00;98637.22;;;16.45;73.65
35489;BME280;21602;55.670;37.578;2023-07-22T03:53:26;98642.25;;;16.51;73.61
35489;BME280;21602;55.670;37.578;2023-07-22T03:55:51;98644.38;;;16.54;73.13
35489;BME280;21602;55.670;37.578;2023-07-22T03:58:17;98634.63;;;16.58;73.41
35489;BME280;21602;55.670;37.578;2023-07-22T04:00:42;98630.19;;;16.68;73.28
35489;BME280;21602;55.670;37.578;2023-07-22T04:03:08;98635.75;;;16.76;72.80
35489;BME280;21602;55.670;37.578;2023-07-22T04:05:33;98636.75;;;16.80;72.37
35489;BME280;21602;55.670;37.578;2023-07-22T04:07:59;98633.72;;;16.87;72.36
35489;BME280;21602;55.670;37.578;2023-07-22T04:10:24;98633.25;;;16.99;71.97
35489;BME280;21602;55.670;37.578;2023-07-22T04:12:50;98635.22;;;17.12;71.66
35489;BME280;21602;55.670;37.578;2023-07-22T04:15:16;98637.47;;;17.24;71.16
35489;BME280;21602;55.670;37.578;2023-07-22T04:17:42;98633.00;;;17.33;70.97
35489;BME280;21602;55.670;37.578;2023-07-22T04:20:08;98635.00;;;17.41;70.84
35489;BME280;21602;55.670;37.578;2023-07-22T04:22:34;98629.03;;;17.44;70.42
35489;BME280;21602;55.670;37.578;2023-07-22T04:24:59;98636.81;;;17.46;70.22
35489;BME280;21602;55.670;37.578;2023-07-22T04:27:26;98635.81;;;17.41;69.98
35489;BME280;21602;55.670;37.578;2023-07-22T04:29:52;98646.69;;;17.36;70.00
35489;BME280;21602;55.670;37.578;2023-07-22T04:32:17;98642.38;;;17.35;70.20
35489;BME280;21602;55.670;37.578;2023-07-22T04:34:43;98643.63;;;17.43;70.04
35489;BME280;21602;55.670;37.578;2023-07-22T04:37:09;98647.03;;;17.49;69.95
35489;BME280;21602;55.670;37.578;2023-07-22T04:39:34;98650.34;;;17.59;69.62
35489;BME280;21602;55.670;37.578;2023-07-22T04:42:00;98646.38;;;17.71;69.73
35489;BME280;21602;55.670;37.578;2023-07-22T04:44:26;98647.53;;;17.83;69.33
35489;BME280;21602;55.670;37.578;2023-07-22T04:46:52;98646.84;;;17.91;68.86
35489;BME280;21602;55.670;37.578;2023-07-22T04:49:17;98647.97;;;18.04;68.73
35489;BME280;21602;55.670;37.578;2023-07-22T04:51:46;98653.06;;;18.06;68.27
35489;BME280;21602;55.670;37.578;2023-07-22T04:54:12;98651.94;;;18.07;67.82
35489;BME280;21602;55.670;37.578;2023-07-22T04:56:37;98655.16;;;18.09;67.81
35489;BME280;21602;55.670;37.578;2023-07-22T04:59:04;98651.47;;;18.05;66.88
35489;BME280;21602;55.670;37.578;2023-07-22T05:01:29;98659.34;;;18.01;66.99
35489;BME280;21602;55.670;37.578;2023-07-22T05:03:55;98656.75;;;18.10;66.98
35489;BME280;21602;55.670;37.578;2023-07-22T05:06:21;98653.88;;;18.20;66.54
35489;BME280;21602;55.670;37.578;2023-07-22T05:08:46;98655.25;;;18.31;66.24
35489;BME280;21602;55.670;37.578;2023-07-22T05:11:12;98657.47;;;18.29;66.14
35489;BME280;21602;55.670;37.578;2023-07-22T05:13:37;98657.94;;;18.31;65.76
35489;BME280;21602;55.670;37.578;2023-07-22T05:16:03;98653.44;;;18.27;65.82
35489;BME280;21602;55.670;37.578;2023-07-22T05:18:29;98646.13;;;18.27;64.92
35489;BME280;21602;55.670;37.578;2023-07-22T05:20:54;98642.16;;;18.38;64.97
35489;BME280;21602;55.670;37.578;2023-07-22T05:23:20;98647.44;;;18.43;64.94
35489;BME280;21602;55.670;37.578;2023-07-22T05:25:52;98644.72;;;18.57;64.84
35489;BME280;21602;55.670;37.578;2023-07-22T05:28:18;98641.13;;;18.76;64.77
35489;BME280;21602;55.670;37.578;2023-07-22T05:30:44;98645.50;;;18.85;63.28
35489;BME280;21602;55.670;37.578;2023-07-22T05:33:09;98645.75;;;18.98;63.33
35489;BME280;21602;55.670;37.578;2023-07-22T05:35:35;98651.94;;;18.98;62.05
35489;BME280;21602;55.670;37.578;2023-07-22T05:38:00;98653.75;;;19.03;62.69
35489;BME280;21602;55.670;37.578;2023-07-22T05:40:29;98649.44;;;19.02;62.52
35489;BME280;21602;55.670;37.578;2023-07-22T05:42:55;98651.22;;;19.06;62.14
35489;BME280;21602;55.670;37.578;2023-07-22T05:45:21;98645.69;;;19.11;62.36
35489;BME280;21602;55.670;37.578;2023-07-22T05:47:46;98646.88;;;19.19;62.53
35489;BME280;21602;55.670;37.578;2023-07-22T05:50:12;98644.53;;;19.26;62.09
35489;BME280;21602;55.670;37.578;2023-07-22T05:52:38;98638.72;;;19.33;61.61
35489;BME280;21602;55.670;37.578;2023-07-22T05:55:03;98642.63;;;19.49;61.87
35489;BME280;21602;55.670;37.578;2023-07-22T05:57:30;98631.84;;;19.58;60.87
35489;BME280;21602;55.670;37.578;2023-07-22T05:59:55;98628.44;;;19.66;61.20
35489;BME280;21602;55.670;37.578;2023-07-22T06:02:21;98638.34;;;19.71;61.03
35489;BME280;21602;55.670;37.578;2023-07-22T06:04:46;98633.72;;;19.71;60.36
35489;BME280;21602;55.670;37.578;2023-07-22T06:07:12;98645.16;;;19.68;60.44
35489;BME280;21602;55.670;37.578;2023-07-22T06:09:38;98640.19;;;19.61;60.43
35489;BME280;21602;55.670;37.578;2023-07-22T06:12:03;98638.84;;;19.59;60.73
35489;BME280;21602;55.670;37.578;2023-07-22T06:14:29;98642.38;;;19.59;60.54
35489;BME280;21602;55.670;37.578;2023-07-22T06:16:54;98648.47;;;19.65;60.59
35489;BME280;21602;55.670;37.578;2023-07-22T06:19:20;98645.53;;;19.75;60.44
35489;BME280;21602;55.670;37.578;2023-07-22T06:21:46;98636.94;;;19.82;59.94
35489;BME280;21602;55.670;37.578;2023-07-22T06:24:11;98640.00;;;19.89;59.66
35489;BME280;21602;55.670;37.578;2023-07-22T06:26:37;98641.94;;;19.97;59.78
35489;BME280;21602;55.670;37.578;2023-07-22T06:29:02;98639.91;;;20.03;59.65
35489;BME280;21602;55.670;37.578;2023-07-22T06:31:28;98634.84;;;20.10;59.45
35489;BME280;21602;55.670;37.578;2023-07-22T06:33:56;98626.75;;;20.18;59.49
35489;BME280;21602;55.670;37.578;2023-07-22T06:36:22;98630.94;;;20.33;59.17
35489;BME280;21602;55.670;37.578;2023-07-22T06:38:48;98633.06;;;20.54;58.50
35489;BME280;21602;55.670;37.578;2023-07-22T06:41:14;98644.09;;;20.66;58.03
35489;BME280;21602;55.670;37.578;2023-07-22T06:43:39;98643.78;;;20.76;58.00
35489;BME280;21602;55.670;37.578;2023-07-22T06:46:05;98636.63;;;20.80;57.74
35489;BME280;21602;55.670;37.578;2023-07-22T06:48:31;98641.72;;;20.73;57.72
35489;BME280;21602;55.670;37.578;2023-07-22T06:50:56;98643.28;;;20.74;57.56
35489;BME280;21602;55.670;37.578;2023-07-22T06:53:22;98639.50;;;20.75;57.25
35489;BME280;21602;55.670;37.578;2023-07-22T06:55:48;98637.72;;;20.79;57.17
35489;BME280;21602;55.670;37.578;2023-07-22T06:58:13;98643.00;;;20.93;56.49
35489;BME280;21602;55.670;37.578;2023-07-22T07:00:39;98647.97;;;21.00;56.68
35489;BME280;21602;55.670;37.578;2023-07-22T07:03:04;98635.03;;;20.96;56.32
35489;BME280;21602;55.670;37.578;2023-07-22T07:05:30;98639.81;;;20.82;56.48
35489;BME280;21602;55.670;37.578;2023-07-22T07:07:55;98643.16;;;20.70;56.39
35489;BME280;21602;55.670;37.578;2023-07-22T07:10:21;98639.78;;;20.65;56.57
35489;BME280;21602;55.670;37.578;2023-07-22T07:12:47;98641.22;;;20.62;56.51
35489;BME280;21602;55.670;37.578;2023-07-22T07:15:12;98645.19;;;20.65;56.31
35489;BME280;21602;55.670;37.578;2023-07-22T07:17:38;98642.34;;;20.70;56.25
35489;BME280;21602;55.670;37.578;2023-07-22T07:20:03;98642.34;;;20.70;55.65
35489;BME280;21602;55.670;37.578;2023-07-22T07:22:29;98636.94;;;20.70;55.68
35489;BME280;21602;55.670;37.578;2023-07-22T07:24:55;98636.44;;;20.68;55.07
35489;BME280;21602;55.670;37.578;2023-07-22T07:27:20;98643.13;;;20.79;55.14
35489;BME280;21602;55.670;37.578;2023-07-22T07:29:46;98639.81;;;21.00;54.76
35489;BME280;21602;55.670;37.578;2023-07-22T07:32:11;98637.75;;;21.14;54.25
35489;BME280;21602;55.670;37.578;2023-07-22T07:34:37;98648.28;;;21.24;53.76
35489;BME280;21602;55.670;37.578;2023-07-22T07:37:03;98650.81;;;21.12;53.82
35489;BME280;21602;55.670;37.578;2023-07-22T07:39:28;98648.44;;;21.02;53.30
35489;BME280;21602;55.670;37.578;2023-07-22T07:41:54;98644.28;;;21.04;53.46
35489;BME280;21602;55.670;37.578;2023-07-22T07:44:19;98639.00;;;21.08;53.81
35489;BME280;21602;55.670;37.578;2023-07-22T07:46:45;98635.19;;;21.17;52.98
35489;BME280;21602;55.670;37.578;2023-07-22T07:49:10;98639.78;;;21.17;52.68
35489;BME280;21602;55.670;37.578;2023-07-22T07:51:36;98652.91;;;21.23;52.39
35489;BME280;21602;55.670;37.578;2023-07-22T07:54:02;98647.16;;;21.34;51.92
35489;BME280;21602;55.670;37.578;2023-07-22T07:56:29;98653.41;;;21.34;51.84
35489;BME280;21602;55.670;37.578;2023-07-22T07:58:55;98640.75;;;21.21;51.80
35489;BME280;21602;55.670;37.578;2023-07-22T08:01:20;98647.78;;;21.22;51.95
35489;BME280;21602;55.670;37.578;2023-07-22T08:03:46;98649.38;;;21.40;52.48
35489;BME280;21602;55.670;37.578;2023-07-22T08:06:12;98653.06;;;21.44;51.71
35489;BME280;21602;55.670;37.578;2023-07-22T08:08:38;98643.63;;;21.51;51.87
35489;BME280;21602;55.670;37.578;2023-07-22T08:11:07;98642.97;;;21.54;51.61
35489;BME280;21602;55.670;37.578;2023-07-22T08:13:33;98647.44;;;21.67;51.59
35489;BME280;21602;55.670;37.578;2023-07-22T08:16:03;98641.97;;;21.76;51.42
35489;BME280;21602;55.670;37.578;2023-07-22T08:18:29;98640.50;;;21.87;51.46
35489;BME280;21602;55.670;37.578;2023-07-22T08:20:55;98639.81;;;21.98;51.50
35489;BME280;21602;55.670;37.578;2023-07-22T08:23:21;98643.31;;;22.08;51.46
35489;BME280;21602;55.670;37.578;2023-07-22T08:25:47;98633.69;;;22.10;50.38
35489;BME280;21602;55.670;37.578;2023-07-22T08:28:13;98643.00;;;22.01;50.84
35489;BME280;21602;55.670;37.578;2023-07-22T08:30:39;98639.63;;;22.04;50.93
35489;BME280;21602;55.670;37.578;2023-07-22T08:33:06;98646.13;;;22.20;50.50
35489;BME280;21602;55.670;37.578;2023-07-22T08:35:35;98643.41;;;22.20;50.35
35489;BME280;21602;55.670;37.578;2023-07-22T08:38:04;98641.31;;;22.26;50.23
35489;BME280;21602;55.670;37.578;2023-07-22T08:40:34;98640.81;;;22.32;50.33
35489;BME280;21602;55.670;37.578;2023-07-22T08:43:00;98644.53;;;22.48;49.59
35489;BME280;21602;55.670;37.578;2023-07-22T08:45:27;98654.78;;;22.52;48.79
35489;BME280;21602;55.670;37.578;2023-07-22T08:47:57;98646.13;;;22.49;48.48
35489;BME280;21602;55.670;37.578;2023-07-22T08:50:24;98640.88;;;22.44;48.49
35489;BME280;21602;55.670;37.578;2023-07-22T08:52:51;98644.00;;;22.34;48.21
35489;BME280;21602;55.670;37.578;2023-07-22T08:55:17;98646.94;;;22.20;48.98
35489;BME280;21602;55.670;37.578;2023-07-22T08:57:44;98662.00;;;22.18;49.38
35489;BME280;21602;55.670;37.578;2023-07-22T09:00:10;98656.97;;;22.29;48.65
35489;BME280;21602;55.670;37.578;2023-07-22T09:02:37;98654.22;;;22.37;48.38
35489;BME280;21602;55.670;37.578;2023-07-22T09:05:03;98656.06;;;22.45;47.99
35489;BME280;21602;55.670;37.578;2023-07-22T09:07:29;98652.22;;;22.76;47.87
35489;BME280;21602;55.670;37.578;2023-07-22T09:09:56;98652.31;;;23.09;47.89
35489;BME280;21602;55.670;37.578;2023-07-22T09:12:22;98651.41;;;23.38;47.22
35489;BME280;21602;55.670;37.578;2023-07-22T09:14:48;98642.59;;;23.41;47.22
35489;BME280;21602;55.670;37.578;2023-07-22T09:17:15;98644.84;;;23.39;46.70
35489;BME280;21602;55.670;37.578;2023-07-22T09:19:40;98646.63;;;23.35;46.14
35489;BME280;21602;55.670;37.578;2023-07-22T09:22:09;98650.91;;;23.24;45.88
35489;BME280;21602;55.670;37.578;2023-07-22T09:24:35;98646.25;;;23.24;46.29
35489;BME280;21602;55.670;37.578;2023-07-22T09:27:00;98646.09;;;23.09;46.13
35489;BME280;21602;55.670;37.578;2023-07-22T09:29:37;98645.41;;;23.12;46.73
35489;BME280;21602;55.670;37.578;2023-07-22T09:32:06;98642.66;;;23.12;46.88
35489;BME280;21602;55.670;37.578;2023-07-22T09:34:32;98639.94;;;23.12;46.83
35489;BME280;21602;55.670;37.578;2023-07-22T09:37:01;98639.44;;;23.18;46.43
35489;BME280;21602;55.670;37.578;2023-07-22T09:39:29;98651.25;;;23.22;46.10
35489;BME280;21602;55.670;37.578;2023-07-22T09:41:54;98659.94;;;23.16;45.45
35489;BME280;21602;55.670;37.578;2023-07-22T09:44:21;98651.53;;;23.09;45.23
35489;BME280;21602;55.670;37.578;2023-07-22T09:46:47;98654.75;;;23.02;45.62
35489;BME280;21602;55.670;37.578;2023-07-22T09:49:13;98659.56;;;23.05;45.46
35489;BME280;21602;55.670;37.578;2023-07-22T09:51:39;98647.00;;;23.13;45.26
35489;BME280;21602;55.670;37.578;2023-07-22T09:54:05;98652.84;;;23.23;44.55
35489;BME280;21602;55.670;37.578;2023-07-22T09:56:31;98665.47;;;23.40;44.74
35489;BME280;21602;55.670;37.578;2023-07-22T09:59:00;98653.59;;;23.45;44.71
35489;BME280;21602;55.670;37.578;2023-07-22T10:01:32;98652.78;;;23.44;45.06
35489;BME280;21602;55.670;37.578;2023-07-22T10:03:58;98666.63;;;23.39;45.21
35489;BME280;21602;55.670;37.578;2023-07-22T10:06:28;98674.38;;;23.49;44.95
35489;BME280;21602;55.670;37.578;2023-07-22T10:08:56;98668.91;;;23.37;43.70
35489;BME280;21602;55.670;37.578;2023-07-22T10:11:25;98661.72;;;23.33;43.98
35489;BME280;21602;55.670;37.578;2023-07-22T10:13:53;98657.03;;;23.54;44.06
35489;BME280;21602;55.670;37.578;2023-07-22T10:16:18;98661.66;;;23.74;43.39
35489;BME280;21602;55.670;37.578;2023-07-22T10:18:44;98669.50;;;23.76;43.72
35489;BME280;21602;55.670;37.578;2023-07-22T10:21:11;98671.25;;;23.60;42.49
35489;BME280;21602;55.670;37.578;2023-07-22T10:23:38;98661.22;;;23.51;42.71
35489;BME280;21602;55.670;37.578;2023-07-22T10:26:05;98661.97;;;23.40;42.77
35489;BME280;21602;55.670;37.578;2023-07-22T10:28:30;98676.44;;;23.52;43.14
35489;BME280;21602;55.670;37.578;2023-07-22T10:30:56;98671.31;;;23.72;43.61
35489;BME280;21602;55.670;37.578;2023-07-22T10:33:22;98670.22;;;23.97;43.55
35489;BME280;21602;55.670;37.578;2023-07-22T10:36:07;98679.56;;;24.09;43.01
35489;BME280;21602;55.670;37.578;2023-07-22T10:38:33;98675.13;;;24.04;42.74
35489;BME280;21602;55.670;37.578;2023-07-22T10:40:59;98672.94;;;23.97;42.95
35489;BME280;21602;55.670;37.578;2023-07-22T10:43:31;98673.84;;;23.89;42.64
35489;BME280;21602;55.670;37.578;2023-07-22T10:46:05;98676.63;;;23.68;43.24
35489;BME280;21602;55.670;37.578;2023-07-22T10:48:36;98678.56;;;23.68;43.45
35489;BME280;21602;55.670;37.578;2023-07-22T10:51:12;98679.03;;;23.49;43.44
35489;BME280;21602;55.670;37.578;2023-07-22T10:53:48;98675.59;;;23.40;43.44
35489;BME280;21602;55.670;37.578;2023-07-22T10:56:19;98671.00;;;23.52;43.35
35489;BME280;21602;55.670;37.578;2023-07-22T11:04:13;98656.34;;;23.57;42.17
35489;BME280;21602;55.670;37.578;2023-07-22T11:06:39;98669.97;;;23.57;42.68
35489;BME280;21602;55.670;37.578;2023-07-22T11:09:05;98669.53;;;23.55;42.29
35489;BME280;21602;55.670;37.578;2023-07-22T11:11:41;98675.28;;;23.74;42.59
35489;BME280;21602;55.670;37.578;2023-07-22T11:14:18;98675.75;;;23.76;42.09
35489;BME280;21602;55.670;37.578;2023-07-22T11:16:46;98685.06;;;23.75;42.24
35489;BME280;21602;55.670;37.578;2023-07-22T11:19:12;98684.69;;;23.65;41.49
35489;BME280;21602;55.670;37.578;2023-07-22T11:21:38;98694.25;;;23.50;41.48
35489;BME280;21602;55.670;37.578;2023-07-22T11:24:04;98698.44;;;23.47;41.58
35489;BME280;21602;55.670;37.578;2023-07-22T11:26:30;98682.97;;;23.39;41.76
35489;BME280;21602;55.670;37.578;2023-07-22T11:28:56;98695.38;;;23.49;41.76
35489;BME280;21602;55.670;37.578;2023-07-22T11:31:22;98705.25;;;23.54;42.11
35489;BME280;21602;55.670;37.578;2023-07-22T11:33:47;98703.22;;;23.50;42.09
35489;BME280;21602;55.670;37.578;2023-07-22T11:36:13;98692.03;;;23.31;42.38
35489;BME280;21602;55.670;37.578;2023-07-22T11:38:39;98693.81;;;23.27;42.82
35489;BME280;21602;55.670;37.578;2023-07-22T11:41:04;98690.81;;;23.20;42.83
35489;BME280;21602;55.670;37.578;2023-07-22T11:43:30;98684.44;;;23.16;42.81
35489;BME280;21602;55.670;37.578;2023-07-22T11:45:56;98694.53;;;23.15;42.90
35489;BME280;21602;55.670;37.578;2023-07-22T11:48:22;98707.00;;;23.16;42.74
35489;BME280;21602;55.670;37.578;2023-07-22T11:50:48;98701.56;;;22.95;43.44
35489;BME280;21602;55.670;37.578;2023-07-22T11:53:13;98715.22;;;22.87;43.64
35489;BME280;21602;55.670;37.578;2023-07-22T11:55:43;98696.84;;;22.84;43.43
35489;BME280;21602;55.670;37.578;2023-07-22T11:58:09;98691.97;;;22.98;43.85
35489;BME280;21602;55.670;37.578;2023-07-22T12:00:34;98689.13;;;23.48;42.82
35489;BME280;21602;55.670;37.578;2023-07-22T12:03:09;98682.97;;;24.18;42.11
35489;BME280;21602;55.670;37.578;2023-07-22T12:05:35;98688.78;;;24.77;41.08
35489;BME280;21602;55.670;37.578;2023-07-22T12:08:00;98678.09;;;25.25;40.75
35489;BME280;21602;55.670;37.578;2023-07-22T12:10:29;98667.16;;;25.53;39.93
35489;BME280;21602;55.670;37.578;2023-07-22T12:12:54;98662.06;;;25.51;39.16
35489;BME280;21602;55.670;37.578;2023-07-22T12:15:20;98663.78;;;25.44;39.20
35489;BME280;21602;55.670;37.578;2023-07-22T12:17:59;98669.25;;;25.44;39.66
35489;BME280;21602;55.670;37.578;2023-07-22T12:20:26;98663.91;;;25.47;39.79
35489;BME280;21602;55.670;37.578;2023-07-22T12:22:52;98667.38;;;25.32;39.63
35489;BME280;21602;55.670;37.578;2023-07-22T12:25:18;98673.47;;;25.01;39.44
35489;BME280;21602;55.670;37.578;2023-07-22T12:27:44;98674.22;;;24.73;39.70
35489;BME280;21602;55.670;37.578;2023-07-22T12:30:09;98679.59;;;24.70;40.50
35489;BME280;21602;55.670;37.578;2023-07-22T12:32:35;98671.84;;;24.72;40.72
35489;BME280;21602;55.670;37.578;2023-07-22T12:35:01;98676.41;;;24.56;40.57
35489;BME280;21602;55.670;37.578;2023-07-22T12:37:29;98682.88;;;24.39;41.12
35489;BME280;21602;55.670;37.578;2023-07-22T12:39:55;98679.47;;;24.17;41.50
35489;BME280;21602;55.670;37.578;2023-07-22T12:42:21;98680.22;;;23.93;42.34
35489;BME280;21602;55.670;37.578;2023-07-22T12:44:46;98683.69;;;23.82;42.70
35489;BME280;21602;55.670;37.578;2023-07-22T12:47:12;98675.59;;;23.73;42.90
35489;BME280;21602;55.670;37.578;2023-07-22T12:49:37;98687.31;;;23.73;43.20
35489;BME280;21602;55.670;37.578;2023-07-22T12:52:03;98665.13;;;23.63;42.95
35489;BME280;21602;55.670;37.578;2023-07-22T12:54:30;98665.09;;;23.50;43.46